<?xml version="1.0" encoding="UTF-8" standalone="no" ?>
<gpx xmlns="http://www.topografix.com/GPX/1/1" xmlns:xsi="http://www.w3.org/2001/XMLSchema-instance" xsi:schemaLocation="http://www.topografix.com/GPX/1/1 http://www.topografix.com/GPX/1/1/gpx.xsd" version="1.1" creator="VisuGPX - https://www.visugpx.com">
  <metadata>
    <name>marche nouvel an </name>
    <desc><![CDATA[promenade de debut 2014 pour evacuer les toxines des jours de fetes 
]]></desc>
  </metadata>
  <trk>
    <name><![CDATA[Tracé 5 janv. 2014 10:32:36]]></name>
    <trkseg>
      <trkpt lat="49.21506" lon="6.84286">
        <ele>248</ele>
        <time>2014-01-05T09:32:36Z</time>
      </trkpt>
      <trkpt lat="49.21501" lon="6.84281">
        <ele>245</ele>
        <time>2014-01-05T09:32:42Z</time>
      </trkpt>
      <trkpt lat="49.21509" lon="6.84257">
        <ele>250</ele>
        <time>2014-01-05T09:32:47Z</time>
      </trkpt>
      <trkpt lat="49.21501" lon="6.8426">
        <ele>245</ele>
        <time>2014-01-05T09:33:02Z</time>
      </trkpt>
      <trkpt lat="49.21496" lon="6.8425">
        <ele>242</ele>
        <time>2014-01-05T09:33:15Z</time>
      </trkpt>
      <trkpt lat="49.21489" lon="6.84244">
        <ele>240</ele>
        <time>2014-01-05T09:33:20Z</time>
      </trkpt>
      <trkpt lat="49.21483" lon="6.84235">
        <ele>243</ele>
        <time>2014-01-05T09:33:24Z</time>
      </trkpt>
      <trkpt lat="49.21479" lon="6.84226">
        <ele>249</ele>
        <time>2014-01-05T09:33:28Z</time>
      </trkpt>
      <trkpt lat="49.21475" lon="6.84216">
        <ele>250</ele>
        <time>2014-01-05T09:33:36Z</time>
      </trkpt>
      <trkpt lat="49.21469" lon="6.84209">
        <ele>252</ele>
        <time>2014-01-05T09:33:44Z</time>
      </trkpt>
      <trkpt lat="49.21463" lon="6.842">
        <ele>253</ele>
        <time>2014-01-05T09:33:48Z</time>
      </trkpt>
      <trkpt lat="49.21457" lon="6.84191">
        <ele>251</ele>
        <time>2014-01-05T09:33:54Z</time>
      </trkpt>
      <trkpt lat="49.21451" lon="6.84182">
        <ele>247</ele>
        <time>2014-01-05T09:34:02Z</time>
      </trkpt>
      <trkpt lat="49.21444" lon="6.84174">
        <ele>244</ele>
        <time>2014-01-05T09:34:10Z</time>
      </trkpt>
      <trkpt lat="49.21439" lon="6.84164">
        <ele>248</ele>
        <time>2014-01-05T09:34:18Z</time>
      </trkpt>
      <trkpt lat="49.21432" lon="6.84154">
        <ele>249</ele>
        <time>2014-01-05T09:34:29Z</time>
      </trkpt>
      <trkpt lat="49.21424" lon="6.84149">
        <ele>235</ele>
        <time>2014-01-05T09:34:57Z</time>
      </trkpt>
      <trkpt lat="49.21419" lon="6.8414">
        <ele>232</ele>
        <time>2014-01-05T09:35:05Z</time>
      </trkpt>
      <trkpt lat="49.21413" lon="6.84133">
        <ele>228</ele>
        <time>2014-01-05T09:35:15Z</time>
      </trkpt>
      <trkpt lat="49.21407" lon="6.84123">
        <ele>226</ele>
        <time>2014-01-05T09:35:25Z</time>
      </trkpt>
      <trkpt lat="49.21402" lon="6.84117">
        <ele>227</ele>
        <time>2014-01-05T09:35:30Z</time>
      </trkpt>
      <trkpt lat="49.21395" lon="6.84109">
        <ele>218</ele>
        <time>2014-01-05T09:35:41Z</time>
      </trkpt>
      <trkpt lat="49.21389" lon="6.841">
        <ele>218</ele>
        <time>2014-01-05T09:35:48Z</time>
      </trkpt>
      <trkpt lat="49.21385" lon="6.8409">
        <ele>215</ele>
        <time>2014-01-05T09:35:56Z</time>
      </trkpt>
      <trkpt lat="49.21382" lon="6.84078">
        <ele>212</ele>
        <time>2014-01-05T09:36:05Z</time>
      </trkpt>
      <trkpt lat="49.21381" lon="6.84065">
        <ele>214</ele>
        <time>2014-01-05T09:36:11Z</time>
      </trkpt>
      <trkpt lat="49.21378" lon="6.84054">
        <ele>210</ele>
        <time>2014-01-05T09:36:21Z</time>
      </trkpt>
      <trkpt lat="49.21373" lon="6.84043">
        <ele>207</ele>
        <time>2014-01-05T09:36:30Z</time>
      </trkpt>
      <trkpt lat="49.21368" lon="6.84033">
        <ele>201</ele>
        <time>2014-01-05T09:36:40Z</time>
      </trkpt>
      <trkpt lat="49.21363" lon="6.84024">
        <ele>200</ele>
        <time>2014-01-05T09:36:46Z</time>
      </trkpt>
      <trkpt lat="49.21358" lon="6.84013">
        <ele>200</ele>
        <time>2014-01-05T09:36:52Z</time>
      </trkpt>
      <trkpt lat="49.21354" lon="6.84002">
        <ele>201</ele>
        <time>2014-01-05T09:36:59Z</time>
      </trkpt>
      <trkpt lat="49.21349" lon="6.8399">
        <ele>203</ele>
        <time>2014-01-05T09:37:05Z</time>
      </trkpt>
      <trkpt lat="49.21345" lon="6.83981">
        <ele>199</ele>
        <time>2014-01-05T09:37:13Z</time>
      </trkpt>
      <trkpt lat="49.21341" lon="6.83969">
        <ele>191</ele>
        <time>2014-01-05T09:37:24Z</time>
      </trkpt>
      <trkpt lat="49.21336" lon="6.8396">
        <ele>184</ele>
        <time>2014-01-05T09:37:33Z</time>
      </trkpt>
      <trkpt lat="49.21333" lon="6.83949">
        <ele>187</ele>
        <time>2014-01-05T09:37:38Z</time>
      </trkpt>
      <trkpt lat="49.21328" lon="6.83938">
        <ele>185</ele>
        <time>2014-01-05T09:37:45Z</time>
      </trkpt>
      <trkpt lat="49.21324" lon="6.83926">
        <ele>185</ele>
        <time>2014-01-05T09:37:53Z</time>
      </trkpt>
      <trkpt lat="49.21319" lon="6.83914">
        <ele>186</ele>
        <time>2014-01-05T09:38:00Z</time>
      </trkpt>
      <trkpt lat="49.21314" lon="6.83905">
        <ele>187</ele>
        <time>2014-01-05T09:38:06Z</time>
      </trkpt>
      <trkpt lat="49.2131" lon="6.83893">
        <ele>189</ele>
        <time>2014-01-05T09:38:11Z</time>
      </trkpt>
      <trkpt lat="49.21304" lon="6.83883">
        <ele>190</ele>
        <time>2014-01-05T09:38:18Z</time>
      </trkpt>
      <trkpt lat="49.21299" lon="6.83873">
        <ele>189</ele>
        <time>2014-01-05T09:38:25Z</time>
      </trkpt>
      <trkpt lat="49.21294" lon="6.83862">
        <ele>189</ele>
        <time>2014-01-05T09:38:31Z</time>
      </trkpt>
      <trkpt lat="49.21288" lon="6.83854">
        <ele>185</ele>
        <time>2014-01-05T09:38:39Z</time>
      </trkpt>
      <trkpt lat="49.21282" lon="6.83846">
        <ele>183</ele>
        <time>2014-01-05T09:38:46Z</time>
      </trkpt>
      <trkpt lat="49.21277" lon="6.83835">
        <ele>182</ele>
        <time>2014-01-05T09:38:54Z</time>
      </trkpt>
      <trkpt lat="49.2127" lon="6.83826">
        <ele>180</ele>
        <time>2014-01-05T09:39:02Z</time>
      </trkpt>
      <trkpt lat="49.21263" lon="6.83818">
        <ele>179</ele>
        <time>2014-01-05T09:39:08Z</time>
      </trkpt>
      <trkpt lat="49.21257" lon="6.83808">
        <ele>183</ele>
        <time>2014-01-05T09:39:13Z</time>
      </trkpt>
      <trkpt lat="49.2125" lon="6.83801">
        <ele>187</ele>
        <time>2014-01-05T09:39:18Z</time>
      </trkpt>
      <trkpt lat="49.21245" lon="6.8379">
        <ele>191</ele>
        <time>2014-01-05T09:39:23Z</time>
      </trkpt>
      <trkpt lat="49.21239" lon="6.83778">
        <ele>196</ele>
        <time>2014-01-05T09:39:28Z</time>
      </trkpt>
      <trkpt lat="49.21233" lon="6.83769">
        <ele>201</ele>
        <time>2014-01-05T09:39:33Z</time>
      </trkpt>
      <trkpt lat="49.21228" lon="6.83756">
        <ele>208</ele>
        <time>2014-01-05T09:39:38Z</time>
      </trkpt>
      <trkpt lat="49.21224" lon="6.83745">
        <ele>211</ele>
        <time>2014-01-05T09:39:42Z</time>
      </trkpt>
      <trkpt lat="49.21216" lon="6.83738">
        <ele>214</ele>
        <time>2014-01-05T09:39:48Z</time>
      </trkpt>
      <trkpt lat="49.2121" lon="6.83733">
        <ele>214</ele>
        <time>2014-01-05T09:39:54Z</time>
      </trkpt>
      <trkpt lat="49.21203" lon="6.83726">
        <ele>218</ele>
        <time>2014-01-05T09:39:58Z</time>
      </trkpt>
      <trkpt lat="49.21198" lon="6.83719">
        <ele>222</ele>
        <time>2014-01-05T09:40:03Z</time>
      </trkpt>
      <trkpt lat="49.2119" lon="6.83711">
        <ele>225</ele>
        <time>2014-01-05T09:40:08Z</time>
      </trkpt>
      <trkpt lat="49.21182" lon="6.83705">
        <ele>225</ele>
        <time>2014-01-05T09:40:15Z</time>
      </trkpt>
      <trkpt lat="49.21174" lon="6.83699">
        <ele>227</ele>
        <time>2014-01-05T09:40:21Z</time>
      </trkpt>
      <trkpt lat="49.21166" lon="6.83697">
        <ele>228</ele>
        <time>2014-01-05T09:40:27Z</time>
      </trkpt>
      <trkpt lat="49.21158" lon="6.83701">
        <ele>230</ele>
        <time>2014-01-05T09:40:34Z</time>
      </trkpt>
      <trkpt lat="49.21152" lon="6.8371">
        <ele>220</ele>
        <time>2014-01-05T09:40:44Z</time>
      </trkpt>
      <trkpt lat="49.21147" lon="6.8372">
        <ele>216</ele>
        <time>2014-01-05T09:40:53Z</time>
      </trkpt>
      <trkpt lat="49.21141" lon="6.8373">
        <ele>218</ele>
        <time>2014-01-05T09:41:01Z</time>
      </trkpt>
      <trkpt lat="49.21138" lon="6.83742">
        <ele>214</ele>
        <time>2014-01-05T09:41:11Z</time>
      </trkpt>
      <trkpt lat="49.21134" lon="6.83753">
        <ele>212</ele>
        <time>2014-01-05T09:41:18Z</time>
      </trkpt>
      <trkpt lat="49.2113" lon="6.83764">
        <ele>214</ele>
        <time>2014-01-05T09:41:24Z</time>
      </trkpt>
      <trkpt lat="49.21125" lon="6.83774">
        <ele>216</ele>
        <time>2014-01-05T09:41:30Z</time>
      </trkpt>
      <trkpt lat="49.21123" lon="6.83786">
        <ele>214</ele>
        <time>2014-01-05T09:41:37Z</time>
      </trkpt>
      <trkpt lat="49.21119" lon="6.83797">
        <ele>217</ele>
        <time>2014-01-05T09:41:43Z</time>
      </trkpt>
      <trkpt lat="49.21113" lon="6.83804">
        <ele>216</ele>
        <time>2014-01-05T09:41:49Z</time>
      </trkpt>
      <trkpt lat="49.21111" lon="6.83816">
        <ele>218</ele>
        <time>2014-01-05T09:41:53Z</time>
      </trkpt>
      <trkpt lat="49.21109" lon="6.83828">
        <ele>218</ele>
        <time>2014-01-05T09:42:00Z</time>
      </trkpt>
      <trkpt lat="49.21105" lon="6.83839">
        <ele>219</ele>
        <time>2014-01-05T09:42:06Z</time>
      </trkpt>
      <trkpt lat="49.21099" lon="6.83848">
        <ele>220</ele>
        <time>2014-01-05T09:42:12Z</time>
      </trkpt>
      <trkpt lat="49.21092" lon="6.83856">
        <ele>222</ele>
        <time>2014-01-05T09:42:18Z</time>
      </trkpt>
      <trkpt lat="49.21088" lon="6.83867">
        <ele>223</ele>
        <time>2014-01-05T09:42:24Z</time>
      </trkpt>
      <trkpt lat="49.21083" lon="6.83878">
        <ele>224</ele>
        <time>2014-01-05T09:42:30Z</time>
      </trkpt>
      <trkpt lat="49.2108" lon="6.8389">
        <ele>225</ele>
        <time>2014-01-05T09:42:36Z</time>
      </trkpt>
      <trkpt lat="49.21076" lon="6.839">
        <ele>226</ele>
        <time>2014-01-05T09:42:42Z</time>
      </trkpt>
      <trkpt lat="49.21072" lon="6.83912">
        <ele>229</ele>
        <time>2014-01-05T09:42:47Z</time>
      </trkpt>
      <trkpt lat="49.21068" lon="6.83922">
        <ele>229</ele>
        <time>2014-01-05T09:42:53Z</time>
      </trkpt>
      <trkpt lat="49.21066" lon="6.83934">
        <ele>227</ele>
        <time>2014-01-05T09:43:00Z</time>
      </trkpt>
      <trkpt lat="49.21061" lon="6.83944">
        <ele>227</ele>
        <time>2014-01-05T09:43:07Z</time>
      </trkpt>
      <trkpt lat="49.21054" lon="6.83952">
        <ele>227</ele>
        <time>2014-01-05T09:43:15Z</time>
      </trkpt>
      <trkpt lat="49.21047" lon="6.8396">
        <ele>228</ele>
        <time>2014-01-05T09:43:22Z</time>
      </trkpt>
      <trkpt lat="49.21045" lon="6.83973">
        <ele>225</ele>
        <time>2014-01-05T09:43:30Z</time>
      </trkpt>
      <trkpt lat="49.21044" lon="6.83985">
        <ele>225</ele>
        <time>2014-01-05T09:43:36Z</time>
      </trkpt>
      <trkpt lat="49.2104" lon="6.83997">
        <ele>227</ele>
        <time>2014-01-05T09:43:43Z</time>
      </trkpt>
      <trkpt lat="49.21035" lon="6.84008">
        <ele>229</ele>
        <time>2014-01-05T09:43:50Z</time>
      </trkpt>
      <trkpt lat="49.2103" lon="6.84019">
        <ele>231</ele>
        <time>2014-01-05T09:43:57Z</time>
      </trkpt>
      <trkpt lat="49.21026" lon="6.84029">
        <ele>233</ele>
        <time>2014-01-05T09:44:03Z</time>
      </trkpt>
      <trkpt lat="49.21024" lon="6.84042">
        <ele>235</ele>
        <time>2014-01-05T09:44:09Z</time>
      </trkpt>
      <trkpt lat="49.21021" lon="6.84054">
        <ele>237</ele>
        <time>2014-01-05T09:44:14Z</time>
      </trkpt>
      <trkpt lat="49.21019" lon="6.84065">
        <ele>232</ele>
        <time>2014-01-05T09:44:22Z</time>
      </trkpt>
      <trkpt lat="49.21017" lon="6.84078">
        <ele>232</ele>
        <time>2014-01-05T09:44:29Z</time>
      </trkpt>
      <trkpt lat="49.21014" lon="6.8409">
        <ele>233</ele>
        <time>2014-01-05T09:44:35Z</time>
      </trkpt>
      <trkpt lat="49.21012" lon="6.84103">
        <ele>232</ele>
        <time>2014-01-05T09:44:44Z</time>
      </trkpt>
      <trkpt lat="49.21011" lon="6.84116">
        <ele>232</ele>
        <time>2014-01-05T09:44:51Z</time>
      </trkpt>
      <trkpt lat="49.21005" lon="6.84126">
        <ele>231</ele>
        <time>2014-01-05T09:45:05Z</time>
      </trkpt>
      <trkpt lat="49.21005" lon="6.84138">
        <ele>231</ele>
        <time>2014-01-05T09:45:10Z</time>
      </trkpt>
      <trkpt lat="49.21002" lon="6.8415">
        <ele>230</ele>
        <time>2014-01-05T09:45:17Z</time>
      </trkpt>
      <trkpt lat="49.20998" lon="6.84162">
        <ele>228</ele>
        <time>2014-01-05T09:45:25Z</time>
      </trkpt>
      <trkpt lat="49.20992" lon="6.8417">
        <ele>228</ele>
        <time>2014-01-05T09:45:32Z</time>
      </trkpt>
      <trkpt lat="49.20987" lon="6.8418">
        <ele>230</ele>
        <time>2014-01-05T09:45:37Z</time>
      </trkpt>
      <trkpt lat="49.20982" lon="6.8419">
        <ele>232</ele>
        <time>2014-01-05T09:45:43Z</time>
      </trkpt>
      <trkpt lat="49.20974" lon="6.84197">
        <ele>234</ele>
        <time>2014-01-05T09:45:50Z</time>
      </trkpt>
      <trkpt lat="49.20971" lon="6.84208">
        <ele>234</ele>
        <time>2014-01-05T09:45:57Z</time>
      </trkpt>
      <trkpt lat="49.20963" lon="6.84215">
        <ele>235</ele>
        <time>2014-01-05T09:46:02Z</time>
      </trkpt>
      <trkpt lat="49.20957" lon="6.84222">
        <ele>234</ele>
        <time>2014-01-05T09:46:07Z</time>
      </trkpt>
      <trkpt lat="49.20951" lon="6.84231">
        <ele>233</ele>
        <time>2014-01-05T09:46:14Z</time>
      </trkpt>
      <trkpt lat="49.20946" lon="6.84241">
        <ele>234</ele>
        <time>2014-01-05T09:46:21Z</time>
      </trkpt>
      <trkpt lat="49.2094" lon="6.8425">
        <ele>234</ele>
        <time>2014-01-05T09:46:31Z</time>
      </trkpt>
      <trkpt lat="49.20935" lon="6.8426">
        <ele>235</ele>
        <time>2014-01-05T09:46:38Z</time>
      </trkpt>
      <trkpt lat="49.20929" lon="6.8427">
        <ele>236</ele>
        <time>2014-01-05T09:46:48Z</time>
      </trkpt>
      <trkpt lat="49.20925" lon="6.84282">
        <ele>241</ele>
        <time>2014-01-05T09:47:07Z</time>
      </trkpt>
      <trkpt lat="49.2092" lon="6.84291">
        <ele>237</ele>
        <time>2014-01-05T09:47:13Z</time>
      </trkpt>
      <trkpt lat="49.20916" lon="6.84303">
        <ele>229</ele>
        <time>2014-01-05T09:47:21Z</time>
      </trkpt>
      <trkpt lat="49.20914" lon="6.84315">
        <ele>228</ele>
        <time>2014-01-05T09:47:27Z</time>
      </trkpt>
      <trkpt lat="49.2091" lon="6.84326">
        <ele>228</ele>
        <time>2014-01-05T09:47:32Z</time>
      </trkpt>
      <trkpt lat="49.20905" lon="6.84336">
        <ele>218</ele>
        <time>2014-01-05T09:47:39Z</time>
      </trkpt>
      <trkpt lat="49.20902" lon="6.84347">
        <ele>212</ele>
        <time>2014-01-05T09:47:46Z</time>
      </trkpt>
      <trkpt lat="49.20893" lon="6.8435">
        <ele>208</ele>
        <time>2014-01-05T09:47:56Z</time>
      </trkpt>
      <trkpt lat="49.20887" lon="6.84355">
        <ele>211</ele>
        <time>2014-01-05T09:48:06Z</time>
      </trkpt>
      <trkpt lat="49.20881" lon="6.84362">
        <ele>215</ele>
        <time>2014-01-05T09:48:11Z</time>
      </trkpt>
      <trkpt lat="49.20874" lon="6.8437">
        <ele>215</ele>
        <time>2014-01-05T09:48:17Z</time>
      </trkpt>
      <trkpt lat="49.20866" lon="6.84376">
        <ele>212</ele>
        <time>2014-01-05T09:48:24Z</time>
      </trkpt>
      <trkpt lat="49.20858" lon="6.84379">
        <ele>212</ele>
        <time>2014-01-05T09:48:30Z</time>
      </trkpt>
      <trkpt lat="49.20853" lon="6.84388">
        <ele>211</ele>
        <time>2014-01-05T09:48:35Z</time>
      </trkpt>
      <trkpt lat="49.20845" lon="6.84394">
        <ele>213</ele>
        <time>2014-01-05T09:48:41Z</time>
      </trkpt>
      <trkpt lat="49.20838" lon="6.84401">
        <ele>217</ele>
        <time>2014-01-05T09:48:48Z</time>
      </trkpt>
      <trkpt lat="49.20831" lon="6.84408">
        <ele>221</ele>
        <time>2014-01-05T09:48:53Z</time>
      </trkpt>
      <trkpt lat="49.20824" lon="6.84412">
        <ele>221</ele>
        <time>2014-01-05T09:48:59Z</time>
      </trkpt>
      <trkpt lat="49.20816" lon="6.84415">
        <ele>225</ele>
        <time>2014-01-05T09:49:05Z</time>
      </trkpt>
      <trkpt lat="49.20807" lon="6.84417">
        <ele>235</ele>
        <time>2014-01-05T09:49:11Z</time>
      </trkpt>
      <trkpt lat="49.20801" lon="6.84409">
        <ele>238</ele>
        <time>2014-01-05T09:49:19Z</time>
      </trkpt>
      <trkpt lat="49.20795" lon="6.84401">
        <ele>242</ele>
        <time>2014-01-05T09:49:25Z</time>
      </trkpt>
      <trkpt lat="49.20789" lon="6.84392">
        <ele>242</ele>
        <time>2014-01-05T09:49:32Z</time>
      </trkpt>
      <trkpt lat="49.20782" lon="6.84384">
        <ele>239</ele>
        <time>2014-01-05T09:49:39Z</time>
      </trkpt>
      <trkpt lat="49.20776" lon="6.84375">
        <ele>237</ele>
        <time>2014-01-05T09:49:48Z</time>
      </trkpt>
      <trkpt lat="49.20771" lon="6.84366">
        <ele>239</ele>
        <time>2014-01-05T09:49:53Z</time>
      </trkpt>
      <trkpt lat="49.20766" lon="6.84357">
        <ele>235</ele>
        <time>2014-01-05T09:50:01Z</time>
      </trkpt>
      <trkpt lat="49.20761" lon="6.84348">
        <ele>236</ele>
        <time>2014-01-05T09:50:06Z</time>
      </trkpt>
      <trkpt lat="49.20755" lon="6.84342">
        <ele>239</ele>
        <time>2014-01-05T09:50:10Z</time>
      </trkpt>
      <trkpt lat="49.20749" lon="6.84333">
        <ele>239</ele>
        <time>2014-01-05T09:50:17Z</time>
      </trkpt>
      <trkpt lat="49.20744" lon="6.84322">
        <ele>240</ele>
        <time>2014-01-05T09:50:24Z</time>
      </trkpt>
      <trkpt lat="49.2074" lon="6.84312">
        <ele>240</ele>
        <time>2014-01-05T09:50:31Z</time>
      </trkpt>
      <trkpt lat="49.20735" lon="6.84303">
        <ele>239</ele>
        <time>2014-01-05T09:50:38Z</time>
      </trkpt>
      <trkpt lat="49.20731" lon="6.84291">
        <ele>236</ele>
        <time>2014-01-05T09:50:47Z</time>
      </trkpt>
      <trkpt lat="49.20726" lon="6.84281">
        <ele>231</ele>
        <time>2014-01-05T09:50:57Z</time>
      </trkpt>
      <trkpt lat="49.20722" lon="6.84269">
        <ele>223</ele>
        <time>2014-01-05T09:51:09Z</time>
      </trkpt>
      <trkpt lat="49.2072" lon="6.84257">
        <ele>221</ele>
        <time>2014-01-05T09:51:16Z</time>
      </trkpt>
      <trkpt lat="49.20715" lon="6.84246">
        <ele>221</ele>
        <time>2014-01-05T09:51:24Z</time>
      </trkpt>
      <trkpt lat="49.20709" lon="6.84236">
        <ele>221</ele>
        <time>2014-01-05T09:51:30Z</time>
      </trkpt>
      <trkpt lat="49.20702" lon="6.8423">
        <ele>222</ele>
        <time>2014-01-05T09:51:38Z</time>
      </trkpt>
      <trkpt lat="49.20694" lon="6.84225">
        <ele>216</ele>
        <time>2014-01-05T09:51:49Z</time>
      </trkpt>
      <trkpt lat="49.20687" lon="6.84217">
        <ele>214</ele>
        <time>2014-01-05T09:51:57Z</time>
      </trkpt>
      <trkpt lat="49.20683" lon="6.84206">
        <ele>216</ele>
        <time>2014-01-05T09:52:11Z</time>
      </trkpt>
      <trkpt lat="49.20679" lon="6.84196">
        <ele>215</ele>
        <time>2014-01-05T09:52:18Z</time>
      </trkpt>
      <trkpt lat="49.20673" lon="6.84188">
        <ele>215</ele>
        <time>2014-01-05T09:52:24Z</time>
      </trkpt>
      <trkpt lat="49.20667" lon="6.8418">
        <ele>213</ele>
        <time>2014-01-05T09:52:30Z</time>
      </trkpt>
      <trkpt lat="49.20665" lon="6.8417">
        <ele>220</ele>
        <time>2014-01-05T09:52:35Z</time>
      </trkpt>
      <trkpt lat="49.20662" lon="6.84158">
        <ele>227</ele>
        <time>2014-01-05T09:52:42Z</time>
      </trkpt>
      <trkpt lat="49.20657" lon="6.84148">
        <ele>230</ele>
        <time>2014-01-05T09:52:48Z</time>
      </trkpt>
      <trkpt lat="49.20649" lon="6.84142">
        <ele>223</ele>
        <time>2014-01-05T09:53:02Z</time>
      </trkpt>
      <trkpt lat="49.20643" lon="6.84132">
        <ele>223</ele>
        <time>2014-01-05T09:53:10Z</time>
      </trkpt>
      <trkpt lat="49.20638" lon="6.84121">
        <ele>225</ele>
        <time>2014-01-05T09:53:18Z</time>
      </trkpt>
      <trkpt lat="49.20632" lon="6.84112">
        <ele>226</ele>
        <time>2014-01-05T09:53:25Z</time>
      </trkpt>
      <trkpt lat="49.20628" lon="6.841">
        <ele>228</ele>
        <time>2014-01-05T09:53:31Z</time>
      </trkpt>
      <trkpt lat="49.20621" lon="6.84092">
        <ele>225</ele>
        <time>2014-01-05T09:53:40Z</time>
      </trkpt>
      <trkpt lat="49.20615" lon="6.84083">
        <ele>233</ele>
        <time>2014-01-05T09:54:00Z</time>
      </trkpt>
      <trkpt lat="49.20607" lon="6.84082">
        <ele>234</ele>
        <time>2014-01-05T09:54:10Z</time>
      </trkpt>
      <trkpt lat="49.20598" lon="6.84079">
        <ele>234</ele>
        <time>2014-01-05T09:54:20Z</time>
      </trkpt>
      <trkpt lat="49.2059" lon="6.84078">
        <ele>231</ele>
        <time>2014-01-05T09:54:30Z</time>
      </trkpt>
      <trkpt lat="49.20582" lon="6.84083">
        <ele>231</ele>
        <time>2014-01-05T09:54:39Z</time>
      </trkpt>
      <trkpt lat="49.20575" lon="6.84078">
        <ele>234</ele>
        <time>2014-01-05T09:55:06Z</time>
      </trkpt>
      <trkpt lat="49.20569" lon="6.8407">
        <ele>233</ele>
        <time>2014-01-05T09:55:14Z</time>
      </trkpt>
      <trkpt lat="49.20562" lon="6.84062">
        <ele>235</ele>
        <time>2014-01-05T09:55:21Z</time>
      </trkpt>
      <trkpt lat="49.20555" lon="6.84054">
        <ele>236</ele>
        <time>2014-01-05T09:55:29Z</time>
      </trkpt>
      <trkpt lat="49.20546" lon="6.84053">
        <ele>235</ele>
        <time>2014-01-05T09:55:39Z</time>
      </trkpt>
      <trkpt lat="49.20538" lon="6.8405">
        <ele>234</ele>
        <time>2014-01-05T09:55:48Z</time>
      </trkpt>
      <trkpt lat="49.2053" lon="6.8405">
        <ele>237</ele>
        <time>2014-01-05T09:55:55Z</time>
      </trkpt>
      <trkpt lat="49.20522" lon="6.84056">
        <ele>238</ele>
        <time>2014-01-05T09:56:03Z</time>
      </trkpt>
      <trkpt lat="49.20514" lon="6.84062">
        <ele>241</ele>
        <time>2014-01-05T09:56:10Z</time>
      </trkpt>
      <trkpt lat="49.20507" lon="6.84067">
        <ele>241</ele>
        <time>2014-01-05T09:56:17Z</time>
      </trkpt>
      <trkpt lat="49.20498" lon="6.84071">
        <ele>242</ele>
        <time>2014-01-05T09:56:25Z</time>
      </trkpt>
      <trkpt lat="49.2049" lon="6.84075">
        <ele>242</ele>
        <time>2014-01-05T09:56:35Z</time>
      </trkpt>
      <trkpt lat="49.20482" lon="6.84079">
        <ele>243</ele>
        <time>2014-01-05T09:56:45Z</time>
      </trkpt>
      <trkpt lat="49.20473" lon="6.84077">
        <ele>245</ele>
        <time>2014-01-05T09:56:54Z</time>
      </trkpt>
      <trkpt lat="49.20465" lon="6.84071">
        <ele>247</ele>
        <time>2014-01-05T09:57:02Z</time>
      </trkpt>
      <trkpt lat="49.20458" lon="6.84063">
        <ele>250</ele>
        <time>2014-01-05T09:57:13Z</time>
      </trkpt>
      <trkpt lat="49.20453" lon="6.84054">
        <ele>253</ele>
        <time>2014-01-05T09:57:18Z</time>
      </trkpt>
      <trkpt lat="49.20448" lon="6.84044">
        <ele>250</ele>
        <time>2014-01-05T09:57:24Z</time>
      </trkpt>
      <trkpt lat="49.2044" lon="6.8404">
        <ele>250</ele>
        <time>2014-01-05T09:57:30Z</time>
      </trkpt>
      <trkpt lat="49.20433" lon="6.84033">
        <ele>246</ele>
        <time>2014-01-05T09:57:39Z</time>
      </trkpt>
      <trkpt lat="49.20427" lon="6.84025">
        <ele>248</ele>
        <time>2014-01-05T09:57:46Z</time>
      </trkpt>
      <trkpt lat="49.20419" lon="6.84018">
        <ele>248</ele>
        <time>2014-01-05T09:57:54Z</time>
      </trkpt>
      <trkpt lat="49.20413" lon="6.84011">
        <ele>247</ele>
        <time>2014-01-05T09:58:01Z</time>
      </trkpt>
      <trkpt lat="49.20406" lon="6.84004">
        <ele>248</ele>
        <time>2014-01-05T09:58:09Z</time>
      </trkpt>
      <trkpt lat="49.204" lon="6.83994">
        <ele>245</ele>
        <time>2014-01-05T09:58:17Z</time>
      </trkpt>
      <trkpt lat="49.20393" lon="6.83989">
        <ele>238</ele>
        <time>2014-01-05T09:58:26Z</time>
      </trkpt>
      <trkpt lat="49.20387" lon="6.83981">
        <ele>240</ele>
        <time>2014-01-05T09:58:34Z</time>
      </trkpt>
      <trkpt lat="49.20381" lon="6.83974">
        <ele>236</ele>
        <time>2014-01-05T09:58:43Z</time>
      </trkpt>
      <trkpt lat="49.20374" lon="6.83966">
        <ele>231</ele>
        <time>2014-01-05T09:58:53Z</time>
      </trkpt>
      <trkpt lat="49.20367" lon="6.83959">
        <ele>233</ele>
        <time>2014-01-05T09:59:00Z</time>
      </trkpt>
      <trkpt lat="49.20362" lon="6.83949">
        <ele>235</ele>
        <time>2014-01-05T09:59:06Z</time>
      </trkpt>
      <trkpt lat="49.20359" lon="6.83936">
        <ele>235</ele>
        <time>2014-01-05T09:59:14Z</time>
      </trkpt>
      <trkpt lat="49.20354" lon="6.83925">
        <ele>236</ele>
        <time>2014-01-05T09:59:21Z</time>
      </trkpt>
      <trkpt lat="49.20347" lon="6.83919">
        <ele>237</ele>
        <time>2014-01-05T09:59:27Z</time>
      </trkpt>
      <trkpt lat="49.2034" lon="6.83913">
        <ele>237</ele>
        <time>2014-01-05T09:59:35Z</time>
      </trkpt>
      <trkpt lat="49.20334" lon="6.83903">
        <ele>240</ele>
        <time>2014-01-05T09:59:42Z</time>
      </trkpt>
      <trkpt lat="49.20329" lon="6.83892">
        <ele>241</ele>
        <time>2014-01-05T09:59:50Z</time>
      </trkpt>
      <trkpt lat="49.20323" lon="6.83885">
        <ele>239</ele>
        <time>2014-01-05T09:59:57Z</time>
      </trkpt>
      <trkpt lat="49.20316" lon="6.83876">
        <ele>238</ele>
        <time>2014-01-05T10:00:06Z</time>
      </trkpt>
      <trkpt lat="49.20309" lon="6.83868">
        <ele>236</ele>
        <time>2014-01-05T10:00:17Z</time>
      </trkpt>
      <trkpt lat="49.20302" lon="6.83862">
        <ele>235</ele>
        <time>2014-01-05T10:00:25Z</time>
      </trkpt>
      <trkpt lat="49.20294" lon="6.83855">
        <ele>236</ele>
        <time>2014-01-05T10:00:32Z</time>
      </trkpt>
      <trkpt lat="49.20288" lon="6.83846">
        <ele>234</ele>
        <time>2014-01-05T10:00:40Z</time>
      </trkpt>
      <trkpt lat="49.20282" lon="6.83838">
        <ele>233</ele>
        <time>2014-01-05T10:00:47Z</time>
      </trkpt>
      <trkpt lat="49.20277" lon="6.83828">
        <ele>232</ele>
        <time>2014-01-05T10:00:54Z</time>
      </trkpt>
      <trkpt lat="49.20272" lon="6.83819">
        <ele>236</ele>
        <time>2014-01-05T10:01:00Z</time>
      </trkpt>
      <trkpt lat="49.20268" lon="6.83808">
        <ele>241</ele>
        <time>2014-01-05T10:01:05Z</time>
      </trkpt>
      <trkpt lat="49.20263" lon="6.83797">
        <ele>243</ele>
        <time>2014-01-05T10:01:11Z</time>
      </trkpt>
      <trkpt lat="49.20259" lon="6.83786">
        <ele>243</ele>
        <time>2014-01-05T10:01:18Z</time>
      </trkpt>
      <trkpt lat="49.20254" lon="6.83776">
        <ele>246</ele>
        <time>2014-01-05T10:01:24Z</time>
      </trkpt>
      <trkpt lat="49.20248" lon="6.83767">
        <ele>247</ele>
        <time>2014-01-05T10:01:30Z</time>
      </trkpt>
      <trkpt lat="49.20241" lon="6.83759">
        <ele>245</ele>
        <time>2014-01-05T10:01:39Z</time>
      </trkpt>
      <trkpt lat="49.20234" lon="6.83754">
        <ele>245</ele>
        <time>2014-01-05T10:01:46Z</time>
      </trkpt>
      <trkpt lat="49.20226" lon="6.83749">
        <ele>246</ele>
        <time>2014-01-05T10:01:53Z</time>
      </trkpt>
      <trkpt lat="49.20219" lon="6.83743">
        <ele>246</ele>
        <time>2014-01-05T10:01:59Z</time>
      </trkpt>
      <trkpt lat="49.20212" lon="6.83736">
        <ele>246</ele>
        <time>2014-01-05T10:02:06Z</time>
      </trkpt>
      <trkpt lat="49.20208" lon="6.83724">
        <ele>249</ele>
        <time>2014-01-05T10:02:13Z</time>
      </trkpt>
      <trkpt lat="49.20205" lon="6.83713">
        <ele>251</ele>
        <time>2014-01-05T10:02:20Z</time>
      </trkpt>
      <trkpt lat="49.20202" lon="6.83701">
        <ele>251</ele>
        <time>2014-01-05T10:02:27Z</time>
      </trkpt>
      <trkpt lat="49.20199" lon="6.83689">
        <ele>251</ele>
        <time>2014-01-05T10:02:34Z</time>
      </trkpt>
      <trkpt lat="49.20195" lon="6.83677">
        <ele>252</ele>
        <time>2014-01-05T10:02:42Z</time>
      </trkpt>
      <trkpt lat="49.20192" lon="6.83665">
        <ele>252</ele>
        <time>2014-01-05T10:02:49Z</time>
      </trkpt>
      <trkpt lat="49.2019" lon="6.83653">
        <ele>253</ele>
        <time>2014-01-05T10:02:56Z</time>
      </trkpt>
      <trkpt lat="49.20188" lon="6.83642">
        <ele>255</ele>
        <time>2014-01-05T10:03:03Z</time>
      </trkpt>
      <trkpt lat="49.20185" lon="6.83631">
        <ele>255</ele>
        <time>2014-01-05T10:03:10Z</time>
      </trkpt>
      <trkpt lat="49.20181" lon="6.83621">
        <ele>255</ele>
        <time>2014-01-05T10:03:17Z</time>
      </trkpt>
      <trkpt lat="49.20175" lon="6.83612">
        <ele>253</ele>
        <time>2014-01-05T10:03:24Z</time>
      </trkpt>
      <trkpt lat="49.20171" lon="6.83601">
        <ele>254</ele>
        <time>2014-01-05T10:03:32Z</time>
      </trkpt>
      <trkpt lat="49.20168" lon="6.83589">
        <ele>251</ele>
        <time>2014-01-05T10:03:42Z</time>
      </trkpt>
      <trkpt lat="49.20167" lon="6.8358">
        <ele>251</ele>
        <time>2014-01-05T10:03:47Z</time>
      </trkpt>
      <trkpt lat="49.20159" lon="6.83575">
        <ele>250</ele>
        <time>2014-01-05T10:03:52Z</time>
      </trkpt>
      <trkpt lat="49.20154" lon="6.83565">
        <ele>257</ele>
        <time>2014-01-05T10:10:19Z</time>
      </trkpt>
      <trkpt lat="49.20149" lon="6.83555">
        <ele>256</ele>
        <time>2014-01-05T10:10:27Z</time>
      </trkpt>
      <trkpt lat="49.20144" lon="6.83545">
        <ele>255</ele>
        <time>2014-01-05T10:10:34Z</time>
      </trkpt>
      <trkpt lat="49.20139" lon="6.83535">
        <ele>254</ele>
        <time>2014-01-05T10:10:41Z</time>
      </trkpt>
      <trkpt lat="49.20134" lon="6.83524">
        <ele>255</ele>
        <time>2014-01-05T10:10:50Z</time>
      </trkpt>
      <trkpt lat="49.2013" lon="6.83514">
        <ele>258</ele>
        <time>2014-01-05T10:10:56Z</time>
      </trkpt>
      <trkpt lat="49.20126" lon="6.83503">
        <ele>262</ele>
        <time>2014-01-05T10:11:03Z</time>
      </trkpt>
      <trkpt lat="49.2012" lon="6.83495">
        <ele>264</ele>
        <time>2014-01-05T10:11:10Z</time>
      </trkpt>
      <trkpt lat="49.20114" lon="6.83484">
        <ele>264</ele>
        <time>2014-01-05T10:11:18Z</time>
      </trkpt>
      <trkpt lat="49.20108" lon="6.83474">
        <ele>260</ele>
        <time>2014-01-05T10:11:29Z</time>
      </trkpt>
      <trkpt lat="49.20102" lon="6.83466">
        <ele>259</ele>
        <time>2014-01-05T10:11:37Z</time>
      </trkpt>
      <trkpt lat="49.20096" lon="6.83465">
        <ele>255</ele>
        <time>2014-01-05T10:11:43Z</time>
      </trkpt>
      <trkpt lat="49.20088" lon="6.8346">
        <ele>254</ele>
        <time>2014-01-05T10:11:50Z</time>
      </trkpt>
      <trkpt lat="49.20084" lon="6.83451">
        <ele>253</ele>
        <time>2014-01-05T10:11:57Z</time>
      </trkpt>
      <trkpt lat="49.20077" lon="6.83443">
        <ele>249</ele>
        <time>2014-01-05T10:12:09Z</time>
      </trkpt>
      <trkpt lat="49.20069" lon="6.83438">
        <ele>248</ele>
        <time>2014-01-05T10:12:18Z</time>
      </trkpt>
      <trkpt lat="49.20061" lon="6.83434">
        <ele>252</ele>
        <time>2014-01-05T10:12:25Z</time>
      </trkpt>
      <trkpt lat="49.20053" lon="6.8343">
        <ele>253</ele>
        <time>2014-01-05T10:12:32Z</time>
      </trkpt>
      <trkpt lat="49.20048" lon="6.8342">
        <ele>261</ele>
        <time>2014-01-05T10:12:44Z</time>
      </trkpt>
      <trkpt lat="49.2004" lon="6.83418">
        <ele>261</ele>
        <time>2014-01-05T10:12:48Z</time>
      </trkpt>
      <trkpt lat="49.20033" lon="6.83411">
        <ele>266</ele>
        <time>2014-01-05T10:12:56Z</time>
      </trkpt>
      <trkpt lat="49.20026" lon="6.83411">
        <ele>264</ele>
        <time>2014-01-05T10:13:01Z</time>
      </trkpt>
      <trkpt lat="49.20018" lon="6.83405">
        <ele>269</ele>
        <time>2014-01-05T10:13:07Z</time>
      </trkpt>
      <trkpt lat="49.20011" lon="6.83399">
        <ele>269</ele>
        <time>2014-01-05T10:13:17Z</time>
      </trkpt>
      <trkpt lat="49.20002" lon="6.83394">
        <ele>269</ele>
        <time>2014-01-05T10:13:25Z</time>
      </trkpt>
      <trkpt lat="49.19994" lon="6.83389">
        <ele>272</ele>
        <time>2014-01-05T10:13:31Z</time>
      </trkpt>
      <trkpt lat="49.19987" lon="6.83384">
        <ele>274</ele>
        <time>2014-01-05T10:13:38Z</time>
      </trkpt>
      <trkpt lat="49.19979" lon="6.83382">
        <ele>273</ele>
        <time>2014-01-05T10:13:43Z</time>
      </trkpt>
      <trkpt lat="49.19972" lon="6.83378">
        <ele>272</ele>
        <time>2014-01-05T10:13:49Z</time>
      </trkpt>
      <trkpt lat="49.19963" lon="6.83378">
        <ele>269</ele>
        <time>2014-01-05T10:13:57Z</time>
      </trkpt>
      <trkpt lat="49.19956" lon="6.83371">
        <ele>273</ele>
        <time>2014-01-05T10:14:05Z</time>
      </trkpt>
      <trkpt lat="49.19949" lon="6.83365">
        <ele>275</ele>
        <time>2014-01-05T10:14:12Z</time>
      </trkpt>
      <trkpt lat="49.19942" lon="6.83357">
        <ele>274</ele>
        <time>2014-01-05T10:14:20Z</time>
      </trkpt>
      <trkpt lat="49.19934" lon="6.83352">
        <ele>270</ele>
        <time>2014-01-05T10:14:28Z</time>
      </trkpt>
      <trkpt lat="49.19928" lon="6.83344">
        <ele>273</ele>
        <time>2014-01-05T10:14:34Z</time>
      </trkpt>
      <trkpt lat="49.19921" lon="6.83337">
        <ele>271</ele>
        <time>2014-01-05T10:14:42Z</time>
      </trkpt>
      <trkpt lat="49.19915" lon="6.83328">
        <ele>271</ele>
        <time>2014-01-05T10:14:54Z</time>
      </trkpt>
      <trkpt lat="49.19908" lon="6.83322">
        <ele>270</ele>
        <time>2014-01-05T10:15:00Z</time>
      </trkpt>
      <trkpt lat="49.199" lon="6.83317">
        <ele>269</ele>
        <time>2014-01-05T10:15:05Z</time>
      </trkpt>
      <trkpt lat="49.19896" lon="6.83306">
        <ele>272</ele>
        <time>2014-01-05T10:15:11Z</time>
      </trkpt>
      <trkpt lat="49.19889" lon="6.83298">
        <ele>273</ele>
        <time>2014-01-05T10:15:17Z</time>
      </trkpt>
      <trkpt lat="49.19882" lon="6.83291">
        <ele>273</ele>
        <time>2014-01-05T10:15:23Z</time>
      </trkpt>
      <trkpt lat="49.19877" lon="6.83282">
        <ele>273</ele>
        <time>2014-01-05T10:15:29Z</time>
      </trkpt>
      <trkpt lat="49.19871" lon="6.83275">
        <ele>272</ele>
        <time>2014-01-05T10:15:36Z</time>
      </trkpt>
      <trkpt lat="49.19866" lon="6.83264">
        <ele>275</ele>
        <time>2014-01-05T10:15:42Z</time>
      </trkpt>
      <trkpt lat="49.19862" lon="6.83252">
        <ele>278</ele>
        <time>2014-01-05T10:15:50Z</time>
      </trkpt>
      <trkpt lat="49.19861" lon="6.83239">
        <ele>283</ele>
        <time>2014-01-05T10:15:56Z</time>
      </trkpt>
      <trkpt lat="49.19857" lon="6.83227">
        <ele>281</ele>
        <time>2014-01-05T10:16:06Z</time>
      </trkpt>
      <trkpt lat="49.19851" lon="6.83217">
        <ele>278</ele>
        <time>2014-01-05T10:16:14Z</time>
      </trkpt>
      <trkpt lat="49.19846" lon="6.83206">
        <ele>278</ele>
        <time>2014-01-05T10:16:21Z</time>
      </trkpt>
      <trkpt lat="49.1984" lon="6.83197">
        <ele>278</ele>
        <time>2014-01-05T10:16:28Z</time>
      </trkpt>
      <trkpt lat="49.19835" lon="6.83187">
        <ele>278</ele>
        <time>2014-01-05T10:16:36Z</time>
      </trkpt>
      <trkpt lat="49.19828" lon="6.83178">
        <ele>277</ele>
        <time>2014-01-05T10:16:44Z</time>
      </trkpt>
      <trkpt lat="49.19822" lon="6.8317">
        <ele>277</ele>
        <time>2014-01-05T10:16:51Z</time>
      </trkpt>
      <trkpt lat="49.19817" lon="6.83159">
        <ele>278</ele>
        <time>2014-01-05T10:16:59Z</time>
      </trkpt>
      <trkpt lat="49.1981" lon="6.83152">
        <ele>276</ele>
        <time>2014-01-05T10:17:06Z</time>
      </trkpt>
      <trkpt lat="49.19803" lon="6.83145">
        <ele>275</ele>
        <time>2014-01-05T10:17:14Z</time>
      </trkpt>
      <trkpt lat="49.19796" lon="6.83137">
        <ele>274</ele>
        <time>2014-01-05T10:17:22Z</time>
      </trkpt>
      <trkpt lat="49.1979" lon="6.83128">
        <ele>275</ele>
        <time>2014-01-05T10:17:28Z</time>
      </trkpt>
      <trkpt lat="49.19784" lon="6.8312">
        <ele>274</ele>
        <time>2014-01-05T10:17:35Z</time>
      </trkpt>
      <trkpt lat="49.19777" lon="6.83112">
        <ele>274</ele>
        <time>2014-01-05T10:17:42Z</time>
      </trkpt>
      <trkpt lat="49.19772" lon="6.83103">
        <ele>273</ele>
        <time>2014-01-05T10:17:50Z</time>
      </trkpt>
      <trkpt lat="49.19768" lon="6.83092">
        <ele>273</ele>
        <time>2014-01-05T10:18:00Z</time>
      </trkpt>
      <trkpt lat="49.19762" lon="6.83082">
        <ele>269</ele>
        <time>2014-01-05T10:18:09Z</time>
      </trkpt>
      <trkpt lat="49.19756" lon="6.83074">
        <ele>269</ele>
        <time>2014-01-05T10:18:15Z</time>
      </trkpt>
      <trkpt lat="49.19749" lon="6.83065">
        <ele>271</ele>
        <time>2014-01-05T10:18:23Z</time>
      </trkpt>
      <trkpt lat="49.19742" lon="6.83058">
        <ele>266</ele>
        <time>2014-01-05T10:18:31Z</time>
      </trkpt>
      <trkpt lat="49.19736" lon="6.8305">
        <ele>266</ele>
        <time>2014-01-05T10:18:37Z</time>
      </trkpt>
      <trkpt lat="49.1973" lon="6.83041">
        <ele>268</ele>
        <time>2014-01-05T10:18:44Z</time>
      </trkpt>
      <trkpt lat="49.19723" lon="6.83034">
        <ele>272</ele>
        <time>2014-01-05T10:18:51Z</time>
      </trkpt>
      <trkpt lat="49.19717" lon="6.83026">
        <ele>274</ele>
        <time>2014-01-05T10:18:58Z</time>
      </trkpt>
      <trkpt lat="49.1971" lon="6.83016">
        <ele>275</ele>
        <time>2014-01-05T10:19:05Z</time>
      </trkpt>
      <trkpt lat="49.19704" lon="6.83008">
        <ele>277</ele>
        <time>2014-01-05T10:19:11Z</time>
      </trkpt>
      <trkpt lat="49.19698" lon="6.82999">
        <ele>280</ele>
        <time>2014-01-05T10:19:19Z</time>
      </trkpt>
      <trkpt lat="49.19692" lon="6.82989">
        <ele>280</ele>
        <time>2014-01-05T10:19:26Z</time>
      </trkpt>
      <trkpt lat="49.19686" lon="6.8298">
        <ele>281</ele>
        <time>2014-01-05T10:19:32Z</time>
      </trkpt>
      <trkpt lat="49.19681" lon="6.8297">
        <ele>280</ele>
        <time>2014-01-05T10:19:41Z</time>
      </trkpt>
      <trkpt lat="49.19673" lon="6.82964">
        <ele>272</ele>
        <time>2014-01-05T10:19:50Z</time>
      </trkpt>
      <trkpt lat="49.19669" lon="6.82953">
        <ele>278</ele>
        <time>2014-01-05T10:19:59Z</time>
      </trkpt>
      <trkpt lat="49.19665" lon="6.82941">
        <ele>275</ele>
        <time>2014-01-05T10:20:07Z</time>
      </trkpt>
      <trkpt lat="49.1966" lon="6.8293">
        <ele>273</ele>
        <time>2014-01-05T10:20:16Z</time>
      </trkpt>
      <trkpt lat="49.19658" lon="6.82919">
        <ele>267</ele>
        <time>2014-01-05T10:20:27Z</time>
      </trkpt>
      <trkpt lat="49.19653" lon="6.82909">
        <ele>267</ele>
        <time>2014-01-05T10:20:33Z</time>
      </trkpt>
      <trkpt lat="49.19647" lon="6.82899">
        <ele>263</ele>
        <time>2014-01-05T10:20:41Z</time>
      </trkpt>
      <trkpt lat="49.1964" lon="6.82894">
        <ele>265</ele>
        <time>2014-01-05T10:20:47Z</time>
      </trkpt>
      <trkpt lat="49.19634" lon="6.82884">
        <ele>271</ele>
        <time>2014-01-05T10:20:56Z</time>
      </trkpt>
      <trkpt lat="49.19628" lon="6.82875">
        <ele>267</ele>
        <time>2014-01-05T10:21:03Z</time>
      </trkpt>
      <trkpt lat="49.19624" lon="6.82863">
        <ele>258</ele>
        <time>2014-01-05T10:21:19Z</time>
      </trkpt>
      <trkpt lat="49.19619" lon="6.82854">
        <ele>255</ele>
        <time>2014-01-05T10:21:28Z</time>
      </trkpt>
      <trkpt lat="49.19616" lon="6.82842">
        <ele>257</ele>
        <time>2014-01-05T10:21:35Z</time>
      </trkpt>
      <trkpt lat="49.1961" lon="6.82836">
        <ele>258</ele>
        <time>2014-01-05T10:21:43Z</time>
      </trkpt>
      <trkpt lat="49.196" lon="6.82834">
        <ele>254</ele>
        <time>2014-01-05T10:21:48Z</time>
      </trkpt>
      <trkpt lat="49.19594" lon="6.82826">
        <ele>260</ele>
        <time>2014-01-05T10:22:01Z</time>
      </trkpt>
      <trkpt lat="49.19588" lon="6.82815">
        <ele>267</ele>
        <time>2014-01-05T10:22:07Z</time>
      </trkpt>
      <trkpt lat="49.19582" lon="6.8281">
        <ele>267</ele>
        <time>2014-01-05T10:22:12Z</time>
      </trkpt>
      <trkpt lat="49.19576" lon="6.82802">
        <ele>270</ele>
        <time>2014-01-05T10:22:17Z</time>
      </trkpt>
      <trkpt lat="49.19572" lon="6.82793">
        <ele>274</ele>
        <time>2014-01-05T10:22:22Z</time>
      </trkpt>
      <trkpt lat="49.19567" lon="6.82785">
        <ele>281</ele>
        <time>2014-01-05T10:22:27Z</time>
      </trkpt>
      <trkpt lat="49.19562" lon="6.82774">
        <ele>279</ele>
        <time>2014-01-05T10:22:35Z</time>
      </trkpt>
      <trkpt lat="49.19556" lon="6.82765">
        <ele>277</ele>
        <time>2014-01-05T10:22:43Z</time>
      </trkpt>
      <trkpt lat="49.19553" lon="6.82753">
        <ele>270</ele>
        <time>2014-01-05T10:22:52Z</time>
      </trkpt>
      <trkpt lat="49.19547" lon="6.82745">
        <ele>271</ele>
        <time>2014-01-05T10:22:58Z</time>
      </trkpt>
      <trkpt lat="49.19542" lon="6.82736">
        <ele>265</ele>
        <time>2014-01-05T10:23:08Z</time>
      </trkpt>
      <trkpt lat="49.19536" lon="6.82727">
        <ele>265</ele>
        <time>2014-01-05T10:23:14Z</time>
      </trkpt>
      <trkpt lat="49.19535" lon="6.82714">
        <ele>263</ele>
        <time>2014-01-05T10:23:22Z</time>
      </trkpt>
      <trkpt lat="49.19528" lon="6.82705">
        <ele>266</ele>
        <time>2014-01-05T10:23:28Z</time>
      </trkpt>
      <trkpt lat="49.19523" lon="6.82697">
        <ele>261</ele>
        <time>2014-01-05T10:23:36Z</time>
      </trkpt>
      <trkpt lat="49.19517" lon="6.82687">
        <ele>270</ele>
        <time>2014-01-05T10:23:42Z</time>
      </trkpt>
      <trkpt lat="49.19514" lon="6.82676">
        <ele>269</ele>
        <time>2014-01-05T10:23:50Z</time>
      </trkpt>
      <trkpt lat="49.19509" lon="6.82669">
        <ele>274</ele>
        <time>2014-01-05T10:23:54Z</time>
      </trkpt>
      <trkpt lat="49.19505" lon="6.82659">
        <ele>281</ele>
        <time>2014-01-05T10:23:58Z</time>
      </trkpt>
      <trkpt lat="49.19504" lon="6.82646">
        <ele>279</ele>
        <time>2014-01-05T10:24:05Z</time>
      </trkpt>
      <trkpt lat="49.19504" lon="6.82633">
        <ele>277</ele>
        <time>2014-01-05T10:24:14Z</time>
      </trkpt>
      <trkpt lat="49.19499" lon="6.82621">
        <ele>277</ele>
        <time>2014-01-05T10:24:21Z</time>
      </trkpt>
      <trkpt lat="49.19498" lon="6.82608">
        <ele>275</ele>
        <time>2014-01-05T10:24:29Z</time>
      </trkpt>
      <trkpt lat="49.19498" lon="6.82595">
        <ele>273</ele>
        <time>2014-01-05T10:24:38Z</time>
      </trkpt>
      <trkpt lat="49.19493" lon="6.82586">
        <ele>278</ele>
        <time>2014-01-05T10:24:43Z</time>
      </trkpt>
      <trkpt lat="49.19489" lon="6.82574">
        <ele>284</ele>
        <time>2014-01-05T10:24:50Z</time>
      </trkpt>
      <trkpt lat="49.19484" lon="6.82564">
        <ele>289</ele>
        <time>2014-01-05T10:24:59Z</time>
      </trkpt>
      <trkpt lat="49.19478" lon="6.82554">
        <ele>290</ele>
        <time>2014-01-05T10:25:07Z</time>
      </trkpt>
      <trkpt lat="49.19473" lon="6.82543">
        <ele>292</ele>
        <time>2014-01-05T10:25:15Z</time>
      </trkpt>
      <trkpt lat="49.19473" lon="6.8253">
        <ele>290</ele>
        <time>2014-01-05T10:25:28Z</time>
      </trkpt>
      <trkpt lat="49.1947" lon="6.82518">
        <ele>292</ele>
        <time>2014-01-05T10:25:36Z</time>
      </trkpt>
      <trkpt lat="49.19463" lon="6.82509">
        <ele>293</ele>
        <time>2014-01-05T10:25:43Z</time>
      </trkpt>
      <trkpt lat="49.19458" lon="6.82499">
        <ele>291</ele>
        <time>2014-01-05T10:25:49Z</time>
      </trkpt>
      <trkpt lat="49.19454" lon="6.82491">
        <ele>292</ele>
        <time>2014-01-05T10:25:57Z</time>
      </trkpt>
      <trkpt lat="49.1945" lon="6.8248">
        <ele>290</ele>
        <time>2014-01-05T10:26:03Z</time>
      </trkpt>
      <trkpt lat="49.1945" lon="6.82469">
        <ele>294</ele>
        <time>2014-01-05T10:26:10Z</time>
      </trkpt>
      <trkpt lat="49.1945" lon="6.82455">
        <ele>293</ele>
        <time>2014-01-05T10:26:18Z</time>
      </trkpt>
      <trkpt lat="49.19448" lon="6.82442">
        <ele>298</ele>
        <time>2014-01-05T10:26:24Z</time>
      </trkpt>
      <trkpt lat="49.19442" lon="6.82434">
        <ele>299</ele>
        <time>2014-01-05T10:26:31Z</time>
      </trkpt>
      <trkpt lat="49.19437" lon="6.82423">
        <ele>301</ele>
        <time>2014-01-05T10:26:38Z</time>
      </trkpt>
      <trkpt lat="49.19434" lon="6.82412">
        <ele>305</ele>
        <time>2014-01-05T10:26:47Z</time>
      </trkpt>
      <trkpt lat="49.19432" lon="6.824">
        <ele>304</ele>
        <time>2014-01-05T10:26:54Z</time>
      </trkpt>
      <trkpt lat="49.19432" lon="6.82387">
        <ele>303</ele>
        <time>2014-01-05T10:27:02Z</time>
      </trkpt>
      <trkpt lat="49.1943" lon="6.82376">
        <ele>299</ele>
        <time>2014-01-05T10:27:11Z</time>
      </trkpt>
      <trkpt lat="49.19427" lon="6.82365">
        <ele>298</ele>
        <time>2014-01-05T10:27:20Z</time>
      </trkpt>
      <trkpt lat="49.19423" lon="6.82354">
        <ele>294</ele>
        <time>2014-01-05T10:27:29Z</time>
      </trkpt>
      <trkpt lat="49.19417" lon="6.82344">
        <ele>298</ele>
        <time>2014-01-05T10:27:36Z</time>
      </trkpt>
      <trkpt lat="49.19413" lon="6.82333">
        <ele>303</ele>
        <time>2014-01-05T10:27:43Z</time>
      </trkpt>
      <trkpt lat="49.19411" lon="6.82321">
        <ele>307</ele>
        <time>2014-01-05T10:27:50Z</time>
      </trkpt>
      <trkpt lat="49.1941" lon="6.82308">
        <ele>304</ele>
        <time>2014-01-05T10:27:59Z</time>
      </trkpt>
      <trkpt lat="49.19406" lon="6.82296">
        <ele>307</ele>
        <time>2014-01-05T10:28:07Z</time>
      </trkpt>
      <trkpt lat="49.194" lon="6.82286">
        <ele>312</ele>
        <time>2014-01-05T10:28:15Z</time>
      </trkpt>
      <trkpt lat="49.19396" lon="6.82275">
        <ele>311</ele>
        <time>2014-01-05T10:28:23Z</time>
      </trkpt>
      <trkpt lat="49.19394" lon="6.82263">
        <ele>309</ele>
        <time>2014-01-05T10:28:30Z</time>
      </trkpt>
      <trkpt lat="49.19386" lon="6.82257">
        <ele>306</ele>
        <time>2014-01-05T10:28:38Z</time>
      </trkpt>
      <trkpt lat="49.19382" lon="6.82245">
        <ele>300</ele>
        <time>2014-01-05T10:28:45Z</time>
      </trkpt>
      <trkpt lat="49.19377" lon="6.82234">
        <ele>302</ele>
        <time>2014-01-05T10:28:53Z</time>
      </trkpt>
      <trkpt lat="49.19376" lon="6.82223">
        <ele>301</ele>
        <time>2014-01-05T10:28:58Z</time>
      </trkpt>
      <trkpt lat="49.19381" lon="6.82205">
        <ele>303</ele>
        <time>2014-01-05T10:29:03Z</time>
      </trkpt>
      <trkpt lat="49.19373" lon="6.82199">
        <ele>309</ele>
        <time>2014-01-05T10:29:30Z</time>
      </trkpt>
      <trkpt lat="49.19368" lon="6.82182">
        <ele>313</ele>
        <time>2014-01-05T10:29:35Z</time>
      </trkpt>
      <trkpt lat="49.19365" lon="6.82172">
        <ele>313</ele>
        <time>2014-01-05T10:29:45Z</time>
      </trkpt>
      <trkpt lat="49.19362" lon="6.8216">
        <ele>315</ele>
        <time>2014-01-05T10:29:53Z</time>
      </trkpt>
      <trkpt lat="49.1936" lon="6.82148">
        <ele>317</ele>
        <time>2014-01-05T10:30:02Z</time>
      </trkpt>
      <trkpt lat="49.19354" lon="6.82138">
        <ele>310</ele>
        <time>2014-01-05T10:30:10Z</time>
      </trkpt>
      <trkpt lat="49.19348" lon="6.82131">
        <ele>311</ele>
        <time>2014-01-05T10:30:16Z</time>
      </trkpt>
      <trkpt lat="49.19343" lon="6.82121">
        <ele>312</ele>
        <time>2014-01-05T10:30:26Z</time>
      </trkpt>
      <trkpt lat="49.19341" lon="6.82109">
        <ele>313</ele>
        <time>2014-01-05T10:30:38Z</time>
      </trkpt>
      <trkpt lat="49.1934" lon="6.82096">
        <ele>320</ele>
        <time>2014-01-05T10:30:45Z</time>
      </trkpt>
      <trkpt lat="49.19336" lon="6.82085">
        <ele>322</ele>
        <time>2014-01-05T10:30:51Z</time>
      </trkpt>
      <trkpt lat="49.1933" lon="6.82077">
        <ele>324</ele>
        <time>2014-01-05T10:30:57Z</time>
      </trkpt>
      <trkpt lat="49.19328" lon="6.82067">
        <ele>327</ele>
        <time>2014-01-05T10:31:04Z</time>
      </trkpt>
      <trkpt lat="49.1932" lon="6.82066">
        <ele>329</ele>
        <time>2014-01-05T10:31:16Z</time>
      </trkpt>
      <trkpt lat="49.19317" lon="6.82078">
        <ele>326</ele>
        <time>2014-01-05T10:32:08Z</time>
      </trkpt>
      <trkpt lat="49.19315" lon="6.8209">
        <ele>313</ele>
        <time>2014-01-05T10:32:16Z</time>
      </trkpt>
      <trkpt lat="49.19314" lon="6.82103">
        <ele>307</ele>
        <time>2014-01-05T10:32:24Z</time>
      </trkpt>
      <trkpt lat="49.1931" lon="6.82111">
        <ele>303</ele>
        <time>2014-01-05T10:32:37Z</time>
      </trkpt>
      <trkpt lat="49.19302" lon="6.82116">
        <ele>304</ele>
        <time>2014-01-05T10:32:46Z</time>
      </trkpt>
      <trkpt lat="49.19297" lon="6.82127">
        <ele>294</ele>
        <time>2014-01-05T10:33:02Z</time>
      </trkpt>
      <trkpt lat="49.19295" lon="6.8214">
        <ele>296</ele>
        <time>2014-01-05T10:33:18Z</time>
      </trkpt>
      <trkpt lat="49.19287" lon="6.82146">
        <ele>284</ele>
        <time>2014-01-05T10:33:29Z</time>
      </trkpt>
      <trkpt lat="49.19284" lon="6.82158">
        <ele>288</ele>
        <time>2014-01-05T10:33:43Z</time>
      </trkpt>
      <trkpt lat="49.19279" lon="6.82169">
        <ele>282</ele>
        <time>2014-01-05T10:33:52Z</time>
      </trkpt>
      <trkpt lat="49.19275" lon="6.82181">
        <ele>288</ele>
        <time>2014-01-05T10:33:59Z</time>
      </trkpt>
      <trkpt lat="49.1927" lon="6.82192">
        <ele>292</ele>
        <time>2014-01-05T10:34:05Z</time>
      </trkpt>
      <trkpt lat="49.19264" lon="6.82201">
        <ele>299</ele>
        <time>2014-01-05T10:34:11Z</time>
      </trkpt>
      <trkpt lat="49.19257" lon="6.82208">
        <ele>302</ele>
        <time>2014-01-05T10:34:20Z</time>
      </trkpt>
      <trkpt lat="49.1925" lon="6.82216">
        <ele>299</ele>
        <time>2014-01-05T10:34:27Z</time>
      </trkpt>
      <trkpt lat="49.19246" lon="6.82228">
        <ele>299</ele>
        <time>2014-01-05T10:34:35Z</time>
      </trkpt>
      <trkpt lat="49.19239" lon="6.82234">
        <ele>297</ele>
        <time>2014-01-05T10:34:46Z</time>
      </trkpt>
      <trkpt lat="49.19233" lon="6.82244">
        <ele>300</ele>
        <time>2014-01-05T10:34:54Z</time>
      </trkpt>
      <trkpt lat="49.19227" lon="6.82253">
        <ele>301</ele>
        <time>2014-01-05T10:35:00Z</time>
      </trkpt>
      <trkpt lat="49.19218" lon="6.82253">
        <ele>309</ele>
        <time>2014-01-05T10:35:06Z</time>
      </trkpt>
      <trkpt lat="49.19212" lon="6.8226">
        <ele>310</ele>
        <time>2014-01-05T10:35:12Z</time>
      </trkpt>
      <trkpt lat="49.19204" lon="6.82267">
        <ele>314</ele>
        <time>2014-01-05T10:35:18Z</time>
      </trkpt>
      <trkpt lat="49.19198" lon="6.82272">
        <ele>318</ele>
        <time>2014-01-05T10:35:24Z</time>
      </trkpt>
      <trkpt lat="49.19193" lon="6.82282">
        <ele>317</ele>
        <time>2014-01-05T10:35:29Z</time>
      </trkpt>
      <trkpt lat="49.19185" lon="6.82283">
        <ele>325</ele>
        <time>2014-01-05T10:35:33Z</time>
      </trkpt>
      <trkpt lat="49.19173" lon="6.82279">
        <ele>337</ele>
        <time>2014-01-05T10:35:38Z</time>
      </trkpt>
      <trkpt lat="49.19169" lon="6.82292">
        <ele>335</ele>
        <time>2014-01-05T10:35:44Z</time>
      </trkpt>
      <trkpt lat="49.19161" lon="6.82296">
        <ele>334</ele>
        <time>2014-01-05T10:35:55Z</time>
      </trkpt>
      <trkpt lat="49.19157" lon="6.82306">
        <ele>331</ele>
        <time>2014-01-05T10:36:02Z</time>
      </trkpt>
      <trkpt lat="49.1915" lon="6.82315">
        <ele>331</ele>
        <time>2014-01-05T10:36:08Z</time>
      </trkpt>
      <trkpt lat="49.19147" lon="6.82327">
        <ele>323</ele>
        <time>2014-01-05T10:36:15Z</time>
      </trkpt>
      <trkpt lat="49.1914" lon="6.82334">
        <ele>322</ele>
        <time>2014-01-05T10:36:22Z</time>
      </trkpt>
      <trkpt lat="49.19133" lon="6.8234">
        <ele>322</ele>
        <time>2014-01-05T10:36:30Z</time>
      </trkpt>
      <trkpt lat="49.19124" lon="6.82344">
        <ele>324</ele>
        <time>2014-01-05T10:36:42Z</time>
      </trkpt>
      <trkpt lat="49.19117" lon="6.82349">
        <ele>320</ele>
        <time>2014-01-05T10:36:53Z</time>
      </trkpt>
      <trkpt lat="49.19115" lon="6.82363">
        <ele>322</ele>
        <time>2014-01-05T10:39:15Z</time>
      </trkpt>
      <trkpt lat="49.19116" lon="6.82376">
        <ele>321</ele>
        <time>2014-01-05T10:39:36Z</time>
      </trkpt>
      <trkpt lat="49.19116" lon="6.82388">
        <ele>312</ele>
        <time>2014-01-05T10:39:49Z</time>
      </trkpt>
      <trkpt lat="49.19114" lon="6.82402">
        <ele>306</ele>
        <time>2014-01-05T10:40:04Z</time>
      </trkpt>
      <trkpt lat="49.19114" lon="6.82414">
        <ele>301</ele>
        <time>2014-01-05T10:40:16Z</time>
      </trkpt>
      <trkpt lat="49.19115" lon="6.82428">
        <ele>299</ele>
        <time>2014-01-05T10:40:25Z</time>
      </trkpt>
      <trkpt lat="49.19114" lon="6.82441">
        <ele>299</ele>
        <time>2014-01-05T10:40:34Z</time>
      </trkpt>
      <trkpt lat="49.19113" lon="6.82454">
        <ele>302</ele>
        <time>2014-01-05T10:40:43Z</time>
      </trkpt>
      <trkpt lat="49.19113" lon="6.82471">
        <ele>309</ele>
        <time>2014-01-05T10:40:48Z</time>
      </trkpt>
      <trkpt lat="49.19112" lon="6.82484">
        <ele>310</ele>
        <time>2014-01-05T10:40:56Z</time>
      </trkpt>
      <trkpt lat="49.19111" lon="6.82497">
        <ele>303</ele>
        <time>2014-01-05T10:41:09Z</time>
      </trkpt>
      <trkpt lat="49.19111" lon="6.82509">
        <ele>304</ele>
        <time>2014-01-05T10:41:16Z</time>
      </trkpt>
      <trkpt lat="49.19111" lon="6.82523">
        <ele>304</ele>
        <time>2014-01-05T10:41:25Z</time>
      </trkpt>
      <trkpt lat="49.1911" lon="6.82536">
        <ele>304</ele>
        <time>2014-01-05T10:41:34Z</time>
      </trkpt>
      <trkpt lat="49.1911" lon="6.82549">
        <ele>304</ele>
        <time>2014-01-05T10:41:42Z</time>
      </trkpt>
      <trkpt lat="49.19109" lon="6.82562">
        <ele>305</ele>
        <time>2014-01-05T10:41:50Z</time>
      </trkpt>
      <trkpt lat="49.19108" lon="6.82576">
        <ele>305</ele>
        <time>2014-01-05T10:41:57Z</time>
      </trkpt>
      <trkpt lat="49.19108" lon="6.82589">
        <ele>306</ele>
        <time>2014-01-05T10:42:05Z</time>
      </trkpt>
      <trkpt lat="49.19108" lon="6.82602">
        <ele>306</ele>
        <time>2014-01-05T10:42:13Z</time>
      </trkpt>
      <trkpt lat="49.19109" lon="6.82615">
        <ele>303</ele>
        <time>2014-01-05T10:42:22Z</time>
      </trkpt>
      <trkpt lat="49.1911" lon="6.82627">
        <ele>305</ele>
        <time>2014-01-05T10:42:28Z</time>
      </trkpt>
      <trkpt lat="49.1911" lon="6.82639">
        <ele>309</ele>
        <time>2014-01-05T10:42:33Z</time>
      </trkpt>
      <trkpt lat="49.1911" lon="6.82651">
        <ele>310</ele>
        <time>2014-01-05T10:42:39Z</time>
      </trkpt>
      <trkpt lat="49.19111" lon="6.82664">
        <ele>313</ele>
        <time>2014-01-05T10:42:45Z</time>
      </trkpt>
      <trkpt lat="49.19111" lon="6.82678">
        <ele>312</ele>
        <time>2014-01-05T10:42:54Z</time>
      </trkpt>
      <trkpt lat="49.19111" lon="6.8269">
        <ele>313</ele>
        <time>2014-01-05T10:43:00Z</time>
      </trkpt>
      <trkpt lat="49.1911" lon="6.82702">
        <ele>316</ele>
        <time>2014-01-05T10:43:06Z</time>
      </trkpt>
      <trkpt lat="49.1911" lon="6.82716">
        <ele>317</ele>
        <time>2014-01-05T10:43:13Z</time>
      </trkpt>
      <trkpt lat="49.1911" lon="6.82728">
        <ele>316</ele>
        <time>2014-01-05T10:43:24Z</time>
      </trkpt>
      <trkpt lat="49.19109" lon="6.8274">
        <ele>316</ele>
        <time>2014-01-05T10:43:31Z</time>
      </trkpt>
      <trkpt lat="49.19109" lon="6.82754">
        <ele>318</ele>
        <time>2014-01-05T10:43:38Z</time>
      </trkpt>
      <trkpt lat="49.19109" lon="6.82765">
        <ele>316</ele>
        <time>2014-01-05T10:43:45Z</time>
      </trkpt>
      <trkpt lat="49.19111" lon="6.82778">
        <ele>316</ele>
        <time>2014-01-05T10:43:52Z</time>
      </trkpt>
      <trkpt lat="49.19111" lon="6.8279">
        <ele>315</ele>
        <time>2014-01-05T10:43:59Z</time>
      </trkpt>
      <trkpt lat="49.19113" lon="6.82802">
        <ele>314</ele>
        <time>2014-01-05T10:44:07Z</time>
      </trkpt>
      <trkpt lat="49.19113" lon="6.82815">
        <ele>311</ele>
        <time>2014-01-05T10:44:15Z</time>
      </trkpt>
      <trkpt lat="49.19115" lon="6.82827">
        <ele>309</ele>
        <time>2014-01-05T10:44:23Z</time>
      </trkpt>
      <trkpt lat="49.19117" lon="6.82838">
        <ele>311</ele>
        <time>2014-01-05T10:44:28Z</time>
      </trkpt>
      <trkpt lat="49.19121" lon="6.82848">
        <ele>313</ele>
        <time>2014-01-05T10:44:34Z</time>
      </trkpt>
      <trkpt lat="49.19127" lon="6.82858">
        <ele>313</ele>
        <time>2014-01-05T10:44:40Z</time>
      </trkpt>
      <trkpt lat="49.19135" lon="6.82865">
        <ele>311</ele>
        <time>2014-01-05T10:44:50Z</time>
      </trkpt>
      <trkpt lat="49.19142" lon="6.82873">
        <ele>299</ele>
        <time>2014-01-05T10:45:03Z</time>
      </trkpt>
      <trkpt lat="49.19148" lon="6.8288">
        <ele>302</ele>
        <time>2014-01-05T10:45:13Z</time>
      </trkpt>
      <trkpt lat="49.19147" lon="6.82894">
        <ele>306</ele>
        <time>2014-01-05T10:45:26Z</time>
      </trkpt>
      <trkpt lat="49.19146" lon="6.82907">
        <ele>310</ele>
        <time>2014-01-05T10:45:40Z</time>
      </trkpt>
      <trkpt lat="49.19143" lon="6.82919">
        <ele>308</ele>
        <time>2014-01-05T10:45:55Z</time>
      </trkpt>
      <trkpt lat="49.19138" lon="6.82929">
        <ele>311</ele>
        <time>2014-01-05T10:46:03Z</time>
      </trkpt>
      <trkpt lat="49.19131" lon="6.82936">
        <ele>314</ele>
        <time>2014-01-05T10:46:10Z</time>
      </trkpt>
      <trkpt lat="49.19123" lon="6.82941">
        <ele>312</ele>
        <time>2014-01-05T10:46:20Z</time>
      </trkpt>
      <trkpt lat="49.19114" lon="6.82943">
        <ele>307</ele>
        <time>2014-01-05T10:46:29Z</time>
      </trkpt>
      <trkpt lat="49.19106" lon="6.8294">
        <ele>306</ele>
        <time>2014-01-05T10:46:37Z</time>
      </trkpt>
      <trkpt lat="49.19099" lon="6.82945">
        <ele>295</ele>
        <time>2014-01-05T10:46:54Z</time>
      </trkpt>
      <trkpt lat="49.19092" lon="6.82947">
        <ele>297</ele>
        <time>2014-01-05T10:46:59Z</time>
      </trkpt>
      <trkpt lat="49.19084" lon="6.82946">
        <ele>298</ele>
        <time>2014-01-05T10:47:09Z</time>
      </trkpt>
      <trkpt lat="49.19075" lon="6.82946">
        <ele>297</ele>
        <time>2014-01-05T10:47:18Z</time>
      </trkpt>
      <trkpt lat="49.19067" lon="6.82945">
        <ele>301</ele>
        <time>2014-01-05T10:47:23Z</time>
      </trkpt>
      <trkpt lat="49.19058" lon="6.82947">
        <ele>304</ele>
        <time>2014-01-05T10:47:28Z</time>
      </trkpt>
      <trkpt lat="49.19051" lon="6.82946">
        <ele>304</ele>
        <time>2014-01-05T10:47:35Z</time>
      </trkpt>
      <trkpt lat="49.19042" lon="6.82948">
        <ele>302</ele>
        <time>2014-01-05T10:47:44Z</time>
      </trkpt>
      <trkpt lat="49.19034" lon="6.82946">
        <ele>301</ele>
        <time>2014-01-05T10:47:53Z</time>
      </trkpt>
      <trkpt lat="49.19026" lon="6.8295">
        <ele>302</ele>
        <time>2014-01-05T10:47:58Z</time>
      </trkpt>
      <trkpt lat="49.19018" lon="6.82952">
        <ele>303</ele>
        <time>2014-01-05T10:48:04Z</time>
      </trkpt>
      <trkpt lat="49.19012" lon="6.82959">
        <ele>304</ele>
        <time>2014-01-05T10:48:12Z</time>
      </trkpt>
      <trkpt lat="49.19008" lon="6.82971">
        <ele>306</ele>
        <time>2014-01-05T10:48:24Z</time>
      </trkpt>
      <trkpt lat="49.19006" lon="6.82983">
        <ele>306</ele>
        <time>2014-01-05T10:48:42Z</time>
      </trkpt>
      <trkpt lat="49.19009" lon="6.82994">
        <ele>301</ele>
        <time>2014-01-05T10:48:52Z</time>
      </trkpt>
      <trkpt lat="49.19014" lon="6.83005">
        <ele>297</ele>
        <time>2014-01-05T10:49:06Z</time>
      </trkpt>
      <trkpt lat="49.19013" lon="6.83017">
        <ele>295</ele>
        <time>2014-01-05T10:49:14Z</time>
      </trkpt>
      <trkpt lat="49.19016" lon="6.83029">
        <ele>299</ele>
        <time>2014-01-05T10:49:21Z</time>
      </trkpt>
      <trkpt lat="49.1902" lon="6.83038">
        <ele>301</ele>
        <time>2014-01-05T10:49:30Z</time>
      </trkpt>
      <trkpt lat="49.19027" lon="6.83044">
        <ele>305</ele>
        <time>2014-01-05T10:49:35Z</time>
      </trkpt>
      <trkpt lat="49.19033" lon="6.83053">
        <ele>307</ele>
        <time>2014-01-05T10:49:43Z</time>
      </trkpt>
      <trkpt lat="49.19035" lon="6.83065">
        <ele>305</ele>
        <time>2014-01-05T10:49:53Z</time>
      </trkpt>
      <trkpt lat="49.19041" lon="6.83072">
        <ele>313</ele>
        <time>2014-01-05T10:50:32Z</time>
      </trkpt>
      <trkpt lat="49.1905" lon="6.8307">
        <ele>317</ele>
        <time>2014-01-05T10:50:37Z</time>
      </trkpt>
      <trkpt lat="49.19055" lon="6.83072">
        <ele>321</ele>
        <time>2014-01-05T10:51:01Z</time>
      </trkpt>
      <trkpt lat="49.19055" lon="6.83072">
        <ele>321</ele>
        <time>2014-01-05T10:51:01Z</time>
      </trkpt>
    </trkseg>
  </trk>
</gpx>